Time;durP1;ratioP1;P1;durP2;ratioP2;P2;SDS_P1;SDS_P2;PMS_P1;PMS_P2;Temp;Humidity;BMP_temperature;BMP_pressure;BME280_temperature;BME280_humidity;BME280_pressure;Samples;Min_cycle;Max_cycle;Signal;HPM_P1;HPM_P2
2022/06/22 00:00:00;;;;;;;0.00;0.00;;;20.20;99.90;;;;;;4972386;28;20049;-72
2022/06/22 00:02:30;;;;;;;0.17;0.17;;;20.40;99.90;;;;;;4978400;28;20026;-72
2022/06/22 00:05:00;;;;;;;3.53;1.88;;;20.50;99.90;;;;;;4967372;28;20420;-72
2022/06/22 00:07:26;;;;;;;0.00;0.00;;;20.60;99.90;;;;;;4971314;28;20022;-74
2022/06/22 00:10:15;;;;;;;0.25;0.25;;;20.70;99.90;;;;;;4969782;28;20030;-72
2022/06/22 00:12:41;;;;;;;0.00;0.00;;;21.10;99.90;;;;;;4977606;28;20454;-73
2022/06/22 00:15:26;;;;;;;0.00;0.00;;;21.30;99.90;;;;;;4979266;28;20031;-72
2022/06/22 00:17:53;;;;;;;0.35;0.20;;;21.60;99.90;;;;;;4967835;28;20389;-74
2022/06/22 00:20:28;;;;;;;0.00;0.00;;;22.00;99.90;;;;;;4954166;28;20050;-72
2022/06/22 00:22:58;;;;;;;0.00;0.00;;;22.20;99.90;;;;;;4964921;28;20084;-73
2022/06/22 00:25:34;;;;;;;0.00;0.00;;;22.50;99.90;;;;;;4969676;28;20073;-73
2022/06/22 00:28:27;;;;;;;1.55;1.27;;;22.80;99.90;;;;;;4966862;28;20033;-73
2022/06/22 00:31:21;;;;;;;1.70;1.60;;;23.20;99.90;;;;;;4966787;28;20039;-73
2022/06/22 00:34:11;;;;;;;0.00;0.00;;;23.50;99.90;;;;;;4976747;28;20074;-73
2022/06/22 00:36:54;;;;;;;0.00;0.00;;;23.60;99.90;;;;;;4974432;28;20019;-73
2022/06/22 00:39:33;;;;;;;0.90;0.90;;;23.80;99.90;;;;;;4971580;28;20069;-73
2022/06/22 00:42:14;;;;;;;0.28;0.28;;;23.90;99.90;;;;;;4977040;28;20029;-73
2022/06/22 00:45:05;;;;;;;0.00;0.00;;;23.90;99.90;;;;;;4973453;28;20054;-73
2022/06/22 00:47:38;;;;;;;0.10;0.10;;;24.00;99.90;;;;;;4972410;28;20093;-73
2022/06/22 00:50:07;;;;;;;0.00;0.00;;;24.00;99.90;;;;;;4972781;28;20027;-73
2022/06/22 00:52:41;;;;;;;0.50;0.50;;;24.20;99.90;;;;;;4970498;28;20473;-73
2022/06/22 00:55:49;;;;;;;0.00;0.00;;;24.40;99.90;;;;;;4988517;28;20046;-73
2022/06/22 00:58:34;;;;;;;0.10;0.10;;;24.40;99.90;;;;;;4944203;28;20046;-73
2022/06/22 01:01:06;;;;;;;0.00;0.00;;;24.50;99.90;;;;;;4976561;28;20022;-73
2022/06/22 01:03:32;;;;;;;1.10;1.10;;;24.50;99.90;;;;;;4974833;28;20085;-73
2022/06/22 01:06:31;;;;;;;0.00;0.00;;;24.80;99.90;;;;;;4975854;28;20030;-73
2022/06/22 01:09:26;;;;;;;0.85;0.85;;;24.80;99.90;;;;;;4979072;28;20034;-73
2022/06/22 01:12:22;;;;;;;11.88;3.75;;;25.20;99.90;;;;;;4963575;28;20043;-73
2022/06/22 01:15:13;;;;;;;0.00;0.00;;;25.60;99.90;;;;;;4978873;28;20054;-72
2022/06/22 01:17:48;;;;;;;0.13;0.13;;;25.60;99.90;;;;;;4983038;28;20113;-73
2022/06/22 01:20:18;;;;;;;0.00;0.00;;;26.20;99.90;;;;;;4984049;28;20031;-74
2022/06/22 01:23:22;;;;;;;0.00;0.00;;;26.50;99.90;;;;;;4981770;28;21285;-73
2022/06/22 01:25:53;;;;;;;0.00;0.00;;;27.00;94.40;;;;;;4977353;28;20102;-74
2022/06/22 01:28:20;;;;;;;2.20;1.90;;;27.20;91.00;;;;;;4973058;28;20042;-74
2022/06/22 01:31:09;;;;;;;1.35;1.35;;;27.50;90.10;;;;;;4975996;28;20037;-72
2022/06/22 01:33:46;;;;;;;0.00;0.00;;;27.40;86.20;;;;;;4968577;28;20070;-72
2022/06/22 01:36:21;;;;;;;0.00;0.00;;;27.90;83.20;;;;;;4980174;28;20022;-72
2022/06/22 01:38:47;;;;;;;2.90;2.72;;;28.10;79.80;;;;;;4979657;28;20035;-72
2022/06/22 01:41:53;;;;;;;0.00;0.00;;;27.80;81.40;;;;;;4980598;28;20370;-74
2022/06/22 01:44:48;;;;;;;0.00;0.00;;;27.80;79.20;;;;;;4980251;28;20030;-73
2022/06/22 01:47:52;;;;;;;0.00;0.00;;;25.80;85.00;;;;;;4976710;28;20062;-73
2022/06/22 01:50:33;;;;;;;0.00;0.00;;;26.30;88.50;;;;;;4923708;28;20058;-73
2022/06/22 01:53:20;;;;;;;0.00;0.00;;;26.80;86.80;;;;;;4981615;28;20082;-72
2022/06/22 01:55:50;;;;;;;0.75;0.75;;;27.20;82.80;;;;;;4976614;28;20039;-72
2022/06/22 01:58:19;;;;;;;0.00;0.00;;;27.80;76.40;;;;;;4971004;28;20110;-73
2022/06/22 02:01:01;;;;;;;0.00;0.00;;;28.30;74.00;;;;;;4962771;28;20070;-73
2022/06/22 02:03:34;;;;;;;0.10;0.10;;;28.90;70.30;;;;;;4972724;28;20450;-74
2022/06/22 02:07:44;;;;;;;0.00;0.00;;;29.40;66.10;;;;;;4971655;28;20023;-73
2022/06/22 02:08:57;;;;;;;0.00;0.00;;;29.50;64.50;;;;;;4970705;28;20092;-73
2022/06/22 02:11:28;;;;;;;0.90;0.35;;;29.50;62.40;;;;;;4984600;28;20073;-73
2022/06/22 02:14:08;;;;;;;0.00;0.00;;;30.10;60.40;;;;;;4975255;28;20062;-74
2022/06/22 02:17:02;;;;;;;0.10;0.10;;;30.30;59.80;;;;;;4974378;28;20129;-74
2022/06/22 02:19:30;;;;;;;0.00;0.00;;;30.90;59.50;;;;;;4952927;28;20043;-74
2022/06/22 02:21:58;;;;;;;0.00;0.00;;;31.20;56.10;;;;;;4971105;28;20462;-74
2022/06/22 02:24:46;;;;;;;0.00;0.00;;;31.40;55.30;;;;;;4970843;28;20322;-73
2022/06/22 02:27:18;;;;;;;0.00;0.00;;;31.90;53.80;;;;;;4970856;28;20482;-73
2022/06/22 02:29:53;;;;;;;0.00;0.00;;;31.90;52.30;;;;;;4971149;28;20166;-73
2022/06/22 02:32:23;;;;;;;0.00;0.00;;;31.90;52.60;;;;;;4972483;28;20034;-74
2022/06/22 02:34:51;;;;;;;0.00;0.00;;;32.50;51.30;;;;;;4970308;28;20042;-74
2022/06/22 02:37:19;;;;;;;0.00;0.00;;;32.50;51.40;;;;;;4967834;28;20058;-75
2022/06/22 02:39:50;;;;;;;0.10;0.10;;;33.00;50.30;;;;;;4964506;28;20034;-74
2022/06/22 02:45:02;;;;;;;8.07;7.47;;;33.20;49.00;;;;;;4967163;28;20101;-74
2022/06/22 02:47:46;;;;;;;0.08;0.08;;;31.50;50.70;;;;;;4964260;28;20039;-76
2022/06/22 02:50:27;;;;;;;0.28;0.28;;;31.00;52.10;;;;;;4960508;28;20038;-74
2022/06/22 02:53:15;;;;;;;0.00;0.00;;;29.80;54.60;;;;;;4959809;28;20085;-73
2022/06/22 02:55:41;;;;;;;0.32;0.32;;;28.90;56.80;;;;;;4967846;28;20050;-74
2022/06/22 02:58:30;;;;;;;0.00;0.00;;;29.30;56.40;;;;;;4962506;28;20038;-75
2022/06/22 03:01:01;;;;;;;0.63;0.63;;;28.60;57.50;;;;;;4962959;28;20038;-74
2022/06/22 03:03:28;;;;;;;5.70;1.55;;;29.30;56.80;;;;;;4963878;28;20445;-74
2022/06/22 03:05:57;;;;;;;0.20;0.17;;;29.80;55.70;;;;;;4960019;28;20039;-74
2022/06/22 03:08:24;;;;;;;0.28;0.28;;;30.40;54.70;;;;;;4961543;28;20061;-75
2022/06/22 03:10:57;;;;;;;0.00;0.00;;;30.60;53.70;;;;;;4960745;28;20219;-74
2022/06/22 03:13:38;;;;;;;0.00;0.00;;;30.60;54.00;;;;;;4957446;28;20038;-75
2022/06/22 03:16:07;;;;;;;0.63;0.63;;;30.80;53.90;;;;;;4963298;28;20042;-74
2022/06/22 03:18:39;;;;;;;0.30;0.25;;;29.80;55.30;;;;;;4965876;28;20027;-74
2022/06/22 03:21:11;;;;;;;0.00;0.00;;;29.40;55.60;;;;;;4965959;28;20026;-74
2022/06/22 03:24:10;;;;;;;0.08;0.08;;;29.20;56.50;;;;;;4969970;28;20023;-75
2022/06/22 03:26:41;;;;;;;0.40;0.40;;;28.80;58.80;;;;;;4963990;28;20436;-75
2022/06/22 03:29:28;;;;;;;5.13;1.75;;;29.50;57.70;;;;;;4966874;28;20022;-73
2022/06/22 03:32:03;;;;;;;0.15;0.15;;;28.70;58.10;;;;;;4966103;28;20027;-74
2022/06/22 03:34:40;;;;;;;0.10;0.10;;;29.30;58.30;;;;;;4968210;28;20023;-74
2022/06/22 03:37:29;;;;;;;0.10;0.10;;;28.30;59.90;;;;;;4965369;28;20026;-74
2022/06/22 03:40:13;;;;;;;0.10;0.10;;;28.50;59.40;;;;;;4966552;28;20037;-75
2022/06/22 03:42:51;;;;;;;0.60;0.57;;;29.10;58.60;;;;;;4966568;28;20105;-73
2022/06/22 03:45:43;;;;;;;0.25;0.25;;;29.10;58.30;;;;;;4963547;28;20039;-73
2022/06/22 03:48:32;;;;;;;0.10;0.10;;;28.50;58.10;;;;;;4963846;28;20034;-73
2022/06/22 03:51:12;;;;;;;0.20;0.20;;;28.40;59.10;;;;;;4967985;28;20027;-74
2022/06/22 03:53:50;;;;;;;6.32;1.95;;;27.70;59.70;;;;;;4967640;28;20102;-74
2022/06/22 03:56:21;;;;;;;0.05;0.05;;;27.70;61.10;;;;;;4945974;28;20049;-75
2022/06/22 03:58:50;;;;;;;0.15;0.15;;;27.70;61.70;;;;;;4963936;28;20386;-73
2022/06/22 04:01:19;;;;;;;0.55;0.55;;;27.60;61.00;;;;;;4963124;28;20069;-74
2022/06/22 04:03:45;;;;;;;0.05;0.05;;;27.90;61.70;;;;;;4962884;28;20030;-75
2022/06/22 04:06:46;;;;;;;0.30;0.30;;;28.30;60.30;;;;;;4963000;28;20417;-73
2022/06/22 04:09:24;;;;;;;3.38;0.60;;;27.90;61.10;;;;;;4965560;28;20129;-74
2022/06/22 04:11:50;;;;;;;0.45;0.40;;;26.90;63.80;;;;;;4964889;28;20034;-72
2022/06/22 04:14:19;;;;;;;8.55;4.82;;;27.00;64.70;;;;;;4968393;28;20035;-74
2022/06/22 04:16:58;;;;;;;0.00;0.00;;;27.10;65.00;;;;;;4964204;28;20062;-74
2022/06/22 04:19:46;;;;;;;1.25;0.35;;;27.20;64.30;;;;;;4962280;28;20807;-74
2022/06/22 04:22:18;;;;;;;0.40;0.40;;;26.80;65.50;;;;;;4964906;28;20027;-75
2022/06/22 04:24:49;;;;;;;0.10;0.10;;;27.00;66.00;;;;;;4963782;28;20501;-75
2022/06/22 04:27:39;;;;;;;0.00;0.00;;;27.90;61.80;;;;;;4963963;28;20035;-74
2022/06/22 04:30:34;;;;;;;0.75;0.75;;;28.30;61.00;;;;;;4964930;28;20519;-74
2022/06/22 04:33:06;;;;;;;0.45;0.28;;;28.60;61.20;;;;;;4967456;28;20043;-76
2022/06/22 04:36:07;;;;;;;1.15;0.98;;;28.00;61.50;;;;;;4965491;28;20034;-77
2022/06/22 04:38:45;;;;;;;1.85;1.55;;;27.60;62.40;;;;;;4962338;28;20023;-74
2022/06/22 04:41:21;;;;;;;1.10;1.00;;;28.00;61.30;;;;;;4960258;28;20026;-73
2022/06/22 04:43:48;;;;;;;0.30;0.30;;;28.20;59.60;;;;;;4966504;28;20046;-74
2022/06/22 04:46:22;;;;;;;0.00;0.00;;;28.10;59.10;;;;;;4967690;28;20042;-74
2022/06/22 04:48:49;;;;;;;0.17;0.17;;;27.90;61.10;;;;;;4969471;28;20033;-74
2022/06/22 04:51:28;;;;;;;0.10;0.10;;;28.10;60.30;;;;;;4972889;28;20061;-75
2022/06/22 04:53:59;;;;;;;1.15;1.13;;;27.80;61.60;;;;;;4969477;28;20090;-75
2022/06/22 04:56:47;;;;;;;4.85;4.35;;;27.50;61.00;;;;;;4971466;28;20054;-74
2022/06/22 04:59:15;;;;;;;0.00;0.00;;;27.60;60.90;;;;;;4973357;28;20054;-75
2022/06/22 05:01:49;;;;;;;1.45;0.68;;;27.70;61.80;;;;;;4971194;28;20035;-74
2022/06/22 05:04:26;;;;;;;0.00;0.00;;;27.60;61.50;;;;;;4963255;28;20903;-74
2022/06/22 05:07:20;;;;;;;0.45;0.45;;;27.70;60.80;;;;;;4969080;28;20663;-74
2022/06/22 05:10:04;;;;;;;0.00;0.00;;;28.20;59.80;;;;;;4966586;28;20069;-75
2022/06/22 05:12:44;;;;;;;0.10;0.10;;;28.00;61.40;;;;;;4964479;28;20061;-73
2022/06/22 05:15:22;;;;;;;0.20;0.17;;;28.00;61.70;;;;;;4967047;28;20039;-73
2022/06/22 05:17:49;;;;;;;0.90;0.85;;;28.20;60.50;;;;;;4965255;28;20031;-74
2022/06/22 05:20:23;;;;;;;3.55;3.03;;;28.40;60.00;;;;;;4967762;28;20058;-74
2022/06/22 05:22:52;;;;;;;0.00;0.00;;;27.70;59.40;;;;;;4968303;28;20027;-73
2022/06/22 05:25:19;;;;;;;0.00;0.00;;;26.90;62.10;;;;;;4967321;28;20054;-73
2022/06/22 05:28:15;;;;;;;0.00;0.00;;;26.80;63.30;;;;;;4967216;28;20126;-73
2022/06/22 05:30:52;;;;;;;0.00;0.00;;;27.30;62.80;;;;;;4970973;28;20545;-74
2022/06/22 05:33:22;;;;;;;0.30;0.10;;;27.60;62.40;;;;;;4965896;28;20035;-74
2022/06/22 05:36:01;;;;;;;0.52;0.52;;;27.90;63.80;;;;;;4963221;28;20069;-73
2022/06/22 05:38:28;;;;;;;0.05;0.05;;;28.50;60.80;;;;;;4964574;28;20031;-75
2022/06/22 05:40:55;;;;;;;0.00;0.00;;;29.00;57.10;;;;;;4964998;28;20030;-73
2022/06/22 05:43:23;;;;;;;0.00;0.00;;;29.10;57.60;;;;;;4962190;28;20019;-74
2022/06/22 05:46:02;;;;;;;0.90;0.25;;;28.70;59.70;;;;;;4967718;28;20041;-74
2022/06/22 05:48:31;;;;;;;0.35;0.20;;;29.00;58.70;;;;;;4966124;28;20412;-74
2022/06/22 05:51:00;;;;;;;0.70;0.70;;;28.20;60.60;;;;;;4968268;28;20065;-74
2022/06/22 05:53:56;;;;;;;0.00;0.00;;;28.30;59.90;;;;;;4963913;28;20023;-74
2022/06/22 05:56:32;;;;;;;0.00;0.00;;;27.90;61.60;;;;;;4965307;28;20051;-75
2022/06/22 05:59:24;;;;;;;1.00;1.00;;;28.20;59.80;;;;;;4967062;28;20481;-73
2022/06/22 06:02:06;;;;;;;1.55;0.68;;;28.30;61.90;;;;;;4969998;28;20109;-75
2022/06/22 06:04:37;;;;;;;1.17;0.63;;;28.80;61.00;;;;;;4968163;28;20552;-75
2022/06/22 06:07:19;;;;;;;0.00;0.00;;;28.50;60.40;;;;;;4966700;28;20085;-75
2022/06/22 06:09:46;;;;;;;0.00;0.00;;;28.20;61.40;;;;;;4962583;28;20038;-73
2022/06/22 06:12:21;;;;;;;1.33;1.23;;;28.60;60.60;;;;;;4964504;28;20108;-75
2022/06/22 06:14:50;;;;;;;0.25;0.10;;;28.10;61.50;;;;;;4963447;28;20442;-73
2022/06/22 06:17:30;;;;;;;0.00;0.00;;;28.10;61.80;;;;;;4962023;28;20058;-73
2022/06/22 06:19:58;;;;;;;0.00;0.00;;;28.20;61.50;;;;;;4964265;28;20035;-75
2022/06/22 06:22:25;;;;;;;0.30;0.20;;;28.80;59.40;;;;;;4967261;28;20105;-73
2022/06/22 06:28:02;;;;;;;0.00;0.00;;;29.00;59.20;;;;;;4974134;28;20063;-75
2022/06/22 06:30:37;;;;;;;7.28;2.97;;;28.70;59.30;;;;;;4966665;28;21260;-74
2022/06/22 06:33:16;;;;;;;0.05;0.05;;;29.30;57.20;;;;;;4968566;28;20039;-74
2022/06/22 06:35:51;;;;;;;3.80;0.75;;;29.50;55.00;;;;;;4968130;28;20078;-73
2022/06/22 06:38:38;;;;;;;8.60;1.92;;;28.90;55.80;;;;;;4967052;28;20512;-74
2022/06/22 06:41:10;;;;;;;0.00;0.00;;;28.50;56.20;;;;;;4964462;28;20532;-73
2022/06/22 06:44:02;;;;;;;0.10;0.10;;;28.70;57.40;;;;;;4961637;28;20393;-75
2022/06/22 06:46:53;;;;;;;0.00;0.00;;;29.20;56.20;;;;;;4966892;28;20042;-74
2022/06/22 06:49:39;;;;;;;0.00;0.00;;;29.10;56.40;;;;;;4966427;28;20392;-74
2022/06/22 06:52:20;;;;;;;3.22;3.03;;;29.40;56.20;;;;;;4962027;28;20023;-74
2022/06/22 06:55:14;;;;;;;0.00;0.00;;;29.60;54.90;;;;;;4962597;28;20496;-74
2022/06/22 06:58:05;;;;;;;0.00;0.00;;;30.00;53.60;;;;;;4966586;28;20089;-74
2022/06/22 07:00:32;;;;;;;0.00;0.00;;;29.00;55.70;;;;;;4954813;28;20213;-75
2022/06/22 07:02:59;;;;;;;0.10;0.10;;;29.10;56.50;;;;;;4960418;28;20018;-74
2022/06/22 07:05:28;;;;;;;0.30;0.30;;;29.60;55.90;;;;;;4961360;28;20027;-74
2022/06/22 07:08:06;;;;;;;0.38;0.38;;;29.60;56.10;;;;;;4962997;28;20114;-73
2022/06/22 07:10:40;;;;;;;0.32;0.32;;;29.90;55.50;;;;;;4958112;28;20389;-76
2022/06/22 07:13:21;;;;;;;2.40;2.25;;;29.60;56.20;;;;;;4958957;28;20275;-74
2022/06/22 07:15:58;;;;;;;0.00;0.00;;;30.10;55.50;;;;;;4949982;28;20428;-74
2022/06/22 07:18:46;;;;;;;0.90;0.30;;;30.00;56.50;;;;;;4966042;28;20043;-74
2022/06/22 07:21:25;;;;;;;0.00;0.00;;;30.00;55.80;;;;;;4966948;28;20015;-74
2022/06/22 07:24:00;;;;;;;0.00;0.00;;;30.10;55.50;;;;;;4963593;28;20030;-74
2022/06/22 07:26:50;;;;;;;0.00;0.00;;;30.50;54.10;;;;;;4960798;28;20034;-74
2022/06/22 07:29:50;;;;;;;0.90;0.22;;;29.80;56.10;;;;;;4968027;28;20041;-75
2022/06/22 07:32:29;;;;;;;1.25;1.25;;;30.30;54.10;;;;;;4963374;28;20512;-74
2022/06/22 07:35:08;;;;;;;0.00;0.00;;;30.60;53.60;;;;;;4963534;28;20876;-74
2022/06/22 07:37:39;;;;;;;0.15;0.10;;;30.90;52.50;;;;;;4960300;28;20027;-74
2022/06/22 07:40:13;;;;;;;0.22;0.22;;;30.80;50.90;;;;;;4956011;28;20026;-74
2022/06/22 07:42:40;;;;;;;2.40;2.30;;;30.40;52.90;;;;;;4958761;28;20386;-74
2022/06/22 07:45:13;;;;;;;0.00;0.00;;;30.60;51.90;;;;;;4956998;28;20039;-74
2022/06/22 07:47:47;;;;;;;0.70;0.70;;;30.50;52.80;;;;;;4962384;28;20031;-74
2022/06/22 07:50:23;;;;;;;0.65;0.65;;;30.60;53.60;;;;;;4944317;28;20049;-74
2022/06/22 07:53:17;;;;;;;0.45;0.35;;;30.90;53.00;;;;;;4956578;28;20655;-73
2022/06/22 07:56:04;;;;;;;0.00;0.00;;;30.80;52.30;;;;;;4963076;28;20085;-75
2022/06/22 07:58:37;;;;;;;0.00;0.00;;;30.90;51.70;;;;;;4966525;28;20058;-73
2022/06/22 08:01:10;;;;;;;0.10;0.08;;;31.00;52.70;;;;;;4963869;28;20603;-73
2022/06/22 08:03:42;;;;;;;0.15;0.15;;;31.40;51.60;;;;;;4965749;28;20023;-74
2022/06/22 08:06:17;;;;;;;1.95;0.68;;;31.20;52.20;;;;;;4969907;28;20030;-73
2022/06/22 08:08:57;;;;;;;0.10;0.08;;;30.70;51.20;;;;;;4963647;28;20035;-74
2022/06/22 08:11:32;;;;;;;0.00;0.00;;;30.70;52.70;;;;;;4962214;28;20054;-73
2022/06/22 08:14:25;;;;;;;0.28;0.28;;;31.20;52.10;;;;;;4958768;28;20039;-74
2022/06/22 08:16:58;;;;;;;0.05;0.00;;;31.10;52.50;;;;;;4958251;28;20043;-73
2022/06/22 08:19:27;;;;;;;0.95;0.70;;;30.60;52.60;;;;;;4960624;28;20037;-73
2022/06/22 08:21:58;;;;;;;0.30;0.30;;;30.20;54.90;;;;;;4965563;28;20206;-73
2022/06/22 08:24:28;;;;;;;0.20;0.20;;;30.70;52.60;;;;;;4945143;28;20030;-76
2022/06/22 08:26:56;;;;;;;0.00;0.00;;;30.90;53.10;;;;;;4967570;28;20408;-74
2022/06/22 08:29:23;;;;;;;0.20;0.20;;;31.00;52.50;;;;;;4962974;28;20049;-74
2022/06/22 08:32:02;;;;;;;0.00;0.00;;;31.20;51.30;;;;;;4967277;28;20084;-73
2022/06/22 08:34:44;;;;;;;0.00;0.00;;;31.40;52.10;;;;;;4963741;28;20114;-73
2022/06/22 08:37:21;;;;;;;0.00;0.00;;;31.50;51.20;;;;;;4968766;28;20023;-74
2022/06/22 08:39:57;;;;;;;0.00;0.00;;;31.80;51.10;;;;;;4966415;28;20054;-75
2022/06/22 08:42:44;;;;;;;0.52;0.30;;;31.90;50.70;;;;;;4963711;28;20035;-75
2022/06/22 08:45:36;;;;;;;0.00;0.00;;;32.00;49.20;;;;;;4962183;28;20462;-76
2022/06/22 08:48:24;;;;;;;4.18;2.15;;;32.00;50.20;;;;;;4967953;28;20633;-73
2022/06/22 08:51:08;;;;;;;1.10;0.50;;;31.80;50.70;;;;;;4968276;28;20046;-74
2022/06/22 08:54:10;;;;;;;0.00;0.00;;;31.20;51.30;;;;;;4965564;28;20027;-74
2022/06/22 08:57:13;;;;;;;0.10;0.10;;;31.40;51.60;;;;;;4966634;28;20047;-75
2022/06/22 09:00:06;;;;;;;0.43;0.43;;;31.90;50.90;;;;;;4963965;28;20042;-73
2022/06/22 09:02:46;;;;;;;0.32;0.32;;;31.50;50.60;;;;;;4959024;28;20420;-74
2022/06/22 09:05:34;;;;;;;5.88;3.70;;;31.30;51.40;;;;;;4940130;28;20423;-74
2022/06/22 09:08:15;;;;;;;0.00;0.00;;;31.70;50.60;;;;;;4956674;28;20158;-74
2022/06/22 09:11:02;;;;;;;0.00;0.00;;;32.10;49.80;;;;;;4957348;28;20035;-74
2022/06/22 09:14:07;;;;;;;0.00;0.00;;;32.40;49.60;;;;;;4958301;28;20412;-75
2022/06/22 09:16:56;;;;;;;0.00;0.00;;;32.70;48.90;;;;;;4967763;28;20050;-74
2022/06/22 09:19:34;;;;;;;0.00;0.00;;;32.30;48.90;;;;;;4966993;28;20033;-75
2022/06/22 09:22:16;;;;;;;0.00;0.00;;;32.30;48.90;;;;;;4972091;28;20027;-73
2022/06/22 09:25:12;;;;;;;0.88;0.88;;;31.80;50.00;;;;;;4971233;28;20050;-74
2022/06/22 09:27:48;;;;;;;0.38;0.25;;;32.10;49.40;;;;;;4964222;28;20629;-74
2022/06/22 09:30:58;;;;;;;0.00;0.00;;;32.40;48.90;;;;;;4966393;28;20035;-75
2022/06/22 09:33:42;;;;;;;0.32;0.20;;;32.10;48.80;;;;;;4966244;28;20030;-74
2022/06/22 09:36:32;;;;;;;0.73;0.73;;;32.10;48.70;;;;;;4971636;28;20026;-74
2022/06/22 09:39:28;;;;;;;0.25;0.10;;;32.40;49.40;;;;;;4969224;28;20039;-74
2022/06/22 09:42:19;;;;;;;0.00;0.00;;;32.30;48.70;;;;;;4962301;28;20107;-74
2022/06/22 09:45:15;;;;;;;0.00;0.00;;;32.30;48.80;;;;;;4966616;28;20440;-76
2022/06/22 09:48:02;;;;;;;0.00;0.00;;;32.30;48.60;;;;;;4969499;28;20065;-75
2022/06/22 09:51:14;;;;;;;0.00;0.00;;;32.40;48.60;;;;;;4973106;28;20026;-74
2022/06/22 09:54:06;;;;;;;1.17;0.52;;;32.70;48.50;;;;;;4973010;28;20066;-74
2022/06/22 09:57:03;;;;;;;0.10;0.10;;;32.50;48.30;;;;;;4969072;28;20043;-75
2022/06/22 09:59:57;;;;;;;0.00;0.00;;;32.50;49.20;;;;;;4972695;28;20031;-73
2022/06/22 10:02:44;;;;;;;0.00;0.00;;;32.60;48.70;;;;;;4968678;28;20337;-75
2022/06/22 10:05:51;;;;;;;1.55;1.48;;;32.70;48.10;;;;;;4967701;28;20050;-74
2022/06/22 10:08:26;;;;;;;0.00;0.00;;;32.70;48.90;;;;;;4967791;28;20027;-74
2022/06/22 10:11:06;;;;;;;0.00;0.00;;;32.60;49.00;;;;;;4972085;28;20389;-75
2022/06/22 10:13:53;;;;;;;0.00;0.00;;;32.50;49.10;;;;;;4966910;28;20045;-74
2022/06/22 10:16:44;;;;;;;0.00;0.00;;;32.40;49.00;;;;;;4969089;28;20835;-73
2022/06/22 10:19:40;;;;;;;0.00;0.00;;;32.20;49.70;;;;;;4967491;28;20027;-73
2022/06/22 10:22:49;;;;;;;0.00;0.00;;;32.10;49.80;;;;;;4969837;28;20070;-75
2022/06/22 10:25:42;;;;;;;0.03;0.00;;;32.20;50.10;;;;;;4966529;28;20034;-73
2022/06/22 10:28:35;;;;;;;0.15;0.15;;;32.30;49.50;;;;;;4977730;28;20473;-75
2022/06/22 10:31:23;;;;;;;0.00;0.00;;;32.30;49.50;;;;;;4968880;28;20030;-74
2022/06/22 10:34:21;;;;;;;0.08;0.08;;;31.90;49.50;;;;;;4969447;28;20030;-74
2022/06/22 10:37:03;;;;;;;0.30;0.30;;;32.10;50.10;;;;;;4969849;28;20076;-73
2022/06/22 10:39:50;;;;;;;0.10;0.10;;;31.90;49.80;;;;;;4970861;28;20097;-73
2022/06/22 10:45:41;;;;;;;0.17;0.17;;;31.60;50.90;;;;;;4965511;28;20093;-73
2022/06/22 10:48:28;;;;;;;0.00;0.00;;;31.40;51.30;;;;;;4967871;28;20104;-75
2022/06/22 10:51:13;;;;;;;0.10;0.10;;;31.30;51.90;;;;;;4970903;28;20031;-73
2022/06/22 10:54:16;;;;;;;0.03;0.03;;;31.40;51.90;;;;;;4975596;28;20031;-74
2022/06/22 10:57:05;;;;;;;9.10;8.20;;;31.40;51.90;;;;;;4968980;28;20061;-74
2022/06/22 10:59:38;;;;;;;0.00;0.00;;;31.30;52.20;;;;;;4974656;28;20481;-75
2022/06/22 11:02:55;;;;;;;0.80;0.80;;;31.20;52.10;;;;;;4972016;28;20389;-74
2022/06/22 11:05:56;;;;;;;0.17;0.10;;;30.80;52.50;;;;;;4971102;28;20054;-75
2022/06/22 11:08:40;;;;;;;0.85;0.85;;;31.10;52.90;;;;;;4976850;28;20503;-74
2022/06/22 11:11:22;;;;;;;0.00;0.00;;;31.20;52.90;;;;;;4969587;28;20038;-75
2022/06/22 11:14:41;;;;;;;0.00;0.00;;;31.50;53.30;;;;;;4968149;28;20556;-74
2022/06/22 11:17:39;;;;;;;0.08;0.08;;;31.70;52.60;;;;;;4909819;29;20040;-74
2022/06/22 11:20:24;;;;;;;0.63;0.52;;;31.50;52.50;;;;;;4904521;29;20063;-75
2022/06/22 11:22:55;;;;;;;0.28;0.25;;;31.40;52.20;;;;;;4967836;28;20110;-74
2022/06/22 11:31:58;;;;;;;0.00;0.00;;;31.60;51.70;;;;;;4968889;28;20041;-74
2022/06/22 11:34:40;;;;;;;0.20;0.20;;;31.50;51.80;;;;;;4967834;28;20493;-75
2022/06/22 11:37:27;;;;;;;0.38;0.38;;;31.70;51.50;;;;;;4969368;28;20473;-75
2022/06/22 11:40:07;;;;;;;0.00;0.00;;;31.90;51.80;;;;;;4968614;28;20023;-75
2022/06/22 11:43:15;;;;;;;3.00;2.80;;;31.40;52.90;;;;;;4968912;28;20027;-75
2022/06/22 11:46:05;;;;;;;0.10;0.10;;;31.20;53.40;;;;;;4971204;28;20424;-75
2022/06/22 11:48:57;;;;;;;0.00;0.00;;;31.40;52.50;;;;;;4952800;28;20030;-75
2022/06/22 11:52:03;;;;;;;0.77;0.35;;;31.80;51.70;;;;;;4968985;28;20034;-73
2022/06/22 11:54:50;;;;;;;0.00;0.00;;;32.00;50.80;;;;;;4952678;28;20093;-74
2022/06/22 11:57:49;;;;;;;0.00;0.00;;;32.10;50.60;;;;;;4967762;28;20047;-75
2022/06/22 12:00:52;;;;;;;0.00;0.00;;;32.20;50.70;;;;;;4967709;28;20038;-74
2022/06/22 12:03:40;;;;;;;0.00;0.00;;;32.00;50.90;;;;;;4965401;28;20016;-75
2022/06/22 12:06:24;;;;;;;0.15;0.15;;;31.90;50.80;;;;;;4968196;28;20050;-75
2022/06/22 12:09:31;;;;;;;6.30;5.75;;;31.90;51.50;;;;;;4966045;28;20045;-74
2022/06/22 12:12:26;;;;;;;0.00;0.00;;;31.90;51.70;;;;;;4937412;28;20045;-74
2022/06/22 12:15:16;;;;;;;0.25;0.25;;;31.90;51.60;;;;;;4972205;28;20039;-75
2022/06/22 12:18:01;;;;;;;0.00;0.00;;;31.70;51.50;;;;;;4968465;28;20027;-74
2022/06/22 12:20:37;;;;;;;0.00;0.00;;;31.70;52.00;;;;;;4976970;28;20620;-74
2022/06/22 12:23:38;;;;;;;0.00;0.00;;;31.40;52.80;;;;;;4967825;28;21444;-74
2022/06/22 12:26:42;;;;;;;0.00;0.00;;;31.60;52.40;;;;;;4961427;28;20066;-74
2022/06/22 12:29:24;;;;;;;0.00;0.00;;;31.70;52.50;;;;;;4969682;28;20023;-73
2022/06/22 12:31:58;;;;;;;0.10;0.10;;;31.70;52.60;;;;;;4971034;28;20030;-74
2022/06/22 12:34:44;;;;;;;0.00;0.00;;;32.00;52.00;;;;;;4977796;28;20029;-74
2022/06/22 12:37:36;;;;;;;0.00;0.00;;;31.90;51.50;;;;;;4968352;28;20110;-74
2022/06/22 12:40:32;;;;;;;1.00;0.93;;;31.80;52.00;;;;;;4959774;28;20071;-74
2022/06/22 12:43:25;;;;;;;0.00;0.00;;;30.90;52.70;;;;;;4970740;28;20106;-74
2022/06/22 12:46:01;;;;;;;0.25;0.25;;;31.00;53.00;;;;;;4978727;28;20030;-75
2022/06/22 12:48:51;;;;;;;0.00;0.00;;;31.30;52.30;;;;;;4969185;28;20114;-75
2022/06/22 12:51:26;;;;;;;0.00;0.00;;;31.30;52.30;;;;;;4978886;28;20469;-75
2022/06/22 12:54:07;;;;;;;0.00;0.00;;;31.20;52.60;;;;;;4979487;28;20042;-74
2022/06/22 12:56:42;;;;;;;0.00;0.00;;;31.20;52.00;;;;;;4972005;28;20238;-75
2022/06/22 12:59:18;;;;;;;0.00;0.00;;;31.00;52.70;;;;;;4969203;28;20381;-72
2022/06/22 13:01:44;;;;;;;0.00;0.00;;;31.10;51.90;;;;;;4972723;28;20076;-73
2022/06/22 13:04:16;;;;;;;0.00;0.00;;;31.10;52.10;;;;;;4976914;28;20038;-75
2022/06/22 13:06:49;;;;;;;0.10;0.10;;;31.20;52.00;;;;;;4986177;28;20053;-73
2022/06/22 13:09:15;;;;;;;0.43;0.43;;;31.30;51.50;;;;;;4977041;28;20469;-73
2022/06/22 13:11:43;;;;;;;0.00;0.00;;;31.00;52.20;;;;;;4976872;28;20054;-74
2022/06/22 13:14:48;;;;;;;7.20;6.93;;;31.10;52.10;;;;;;4988250;28;20500;-74
2022/06/22 13:17:33;;;;;;;0.00;0.00;;;31.10;52.30;;;;;;4973083;28;20354;-74
2022/06/22 13:20:30;;;;;;;0.00;0.00;;;31.00;52.30;;;;;;4981847;28;20030;-74
2022/06/22 13:23:32;;;;;;;0.00;0.00;;;31.00;52.30;;;;;;4976316;28;20035;-74
2022/06/22 13:26:30;;;;;;;0.00;0.00;;;30.70;53.90;;;;;;4973428;28;20046;-75
2022/06/22 13:29:17;;;;;;;0.00;0.00;;;30.80;53.00;;;;;;4953728;28;20046;-74
2022/06/22 13:31:45;;;;;;;0.10;0.10;;;30.90;52.70;;;;;;4972491;28;20035;-74
2022/06/22 13:34:22;;;;;;;0.00;0.00;;;30.60;53.20;;;;;;4974480;28;20030;-75
2022/06/22 13:37:23;;;;;;;0.00;0.00;;;30.60;53.30;;;;;;4973402;28;20082;-74
2022/06/22 13:40:26;;;;;;;0.00;0.00;;;30.60;53.50;;;;;;4956612;29;20023;-73
2022/06/22 13:43:23;;;;;;;0.00;0.00;;;30.60;53.60;;;;;;4974897;28;20143;-73
2022/06/22 13:45:53;;;;;;;0.00;0.00;;;30.50;54.00;;;;;;4982219;28;20026;-74
2022/06/22 13:48:45;;;;;;;0.20;0.20;;;30.30;54.10;;;;;;4979673;28;20035;-73
2022/06/22 13:51:54;;;;;;;0.00;0.00;;;30.30;54.50;;;;;;4983542;28;20045;-75
2022/06/22 13:54:33;;;;;;;0.00;0.00;;;30.20;54.60;;;;;;4976104;28;20019;-74
2022/06/22 13:57:23;;;;;;;0.00;0.00;;;30.20;55.20;;;;;;4973727;28;20050;-74
2022/06/22 13:59:56;;;;;;;0.00;0.00;;;30.10;55.40;;;;;;4975699;28;20023;-74
2022/06/22 14:02:48;;;;;;;0.22;0.22;;;30.10;55.50;;;;;;4967106;28;20027;-76
2022/06/22 14:05:33;;;;;;;0.20;0.20;;;30.10;55.60;;;;;;4968520;28;20023;-73
2022/06/22 14:08:09;;;;;;;0.00;0.00;;;29.80;55.30;;;;;;4956695;29;20034;-73
2022/06/22 14:10:51;;;;;;;0.43;0.43;;;29.70;55.90;;;;;;4958419;28;20038;-74
2022/06/22 14:13:53;;;;;;;0.00;0.00;;;29.40;56.50;;;;;;4971014;28;20026;-74
2022/06/22 14:16:44;;;;;;;0.00;0.00;;;29.20;57.30;;;;;;4967871;28;20059;-74
2022/06/22 14:19:44;;;;;;;0.00;0.00;;;29.10;58.00;;;;;;4960263;28;20102;-74